createdAt,value
2023-05-19T00:01:19.345Z,55.80
2023-05-19T00:03:54.195Z,56.50
2023-05-19T00:06:26.648Z,56.40
2023-05-19T00:08:58.599Z,55.90
2023-05-19T00:11:26.871Z,55.80
2023-05-19T00:13:54.885Z,55.80
2023-05-19T00:16:22.569Z,55.90
2023-05-19T00:18:49.630Z,55.90
2023-05-19T00:21:16.765Z,55.80
2023-05-19T00:23:43.667Z,55.80
2023-05-19T00:26:10.795Z,55.80
2023-05-19T00:28:37.536Z,55.80
2023-05-19T00:31:05.358Z,56.00
2023-05-19T00:33:33.729Z,55.90
2023-05-19T00:36:03.303Z,56.00
2023-05-19T00:38:34.405Z,56.00
2023-05-19T00:41:02.194Z,55.90
2023-05-19T00:43:30.257Z,56.00
2023-05-19T00:45:57.804Z,56.00
2023-05-19T00:48:25.711Z,55.90
2023-05-19T00:50:54.838Z,56.00
2023-05-19T00:53:23.018Z,56.00
2023-05-19T00:55:50.271Z,56.00
2023-05-19T00:58:17.148Z,56.00
2023-05-19T01:00:44.252Z,56.00
2023-05-19T01:03:11.459Z,56.00
2023-05-19T01:05:42.234Z,56.00
2023-05-19T01:08:09.322Z,56.00
2023-05-19T01:10:37.760Z,56.00
2023-05-19T01:13:05.799Z,56.00
2023-05-19T01:15:40.173Z,56.00
2023-05-19T01:18:16.712Z,56.10
2023-05-19T01:20:59.196Z,56.10
2023-05-19T01:23:51.836Z,56.10
2023-05-19T01:26:38.399Z,56.10
2023-05-19T01:29:31.868Z,56.10
2023-05-19T01:32:00.637Z,56.10
2023-05-19T01:34:29.369Z,56.10
2023-05-19T01:36:57.160Z,55.60
2023-05-19T01:39:24.912Z,56.10
2023-05-19T01:41:53.859Z,56.10
2023-05-19T01:44:22.158Z,56.10
2023-05-19T01:46:50.018Z,56.10
2023-05-19T01:49:16.795Z,56.10
2023-05-19T01:51:43.692Z,56.20
2023-05-19T01:54:10.364Z,56.20
2023-05-19T01:57:04.073Z,56.20
2023-05-19T01:59:41.066Z,56.20
2023-05-19T02:02:21.002Z,56.20
2023-05-19T02:05:18.383Z,56.20
2023-05-19T02:07:55.344Z,56.20
2023-05-19T02:10:27.276Z,56.20
2023-05-19T02:12:58.657Z,56.20
2023-05-19T02:15:29.224Z,56.20
2023-05-19T02:17:57.974Z,56.20
2023-05-19T02:20:24.678Z,56.20
2023-05-19T02:22:51.470Z,56.20
2023-05-19T02:25:18.218Z,56.30
2023-05-19T02:27:49.027Z,56.30
2023-05-19T02:30:15.652Z,56.30
2023-05-19T02:32:42.372Z,56.30
2023-05-19T02:35:09.699Z,56.30
2023-05-19T02:37:36.411Z,56.20
2023-05-19T02:40:04.126Z,56.30
2023-05-19T02:42:31.301Z,56.20
2023-05-19T02:44:57.977Z,56.20
2023-05-19T02:47:24.656Z,56.20
2023-05-19T02:49:51.325Z,56.40
2023-05-19T02:52:17.992Z,56.30
2023-05-19T02:54:44.711Z,56.30
2023-05-19T02:57:11.537Z,56.90
2023-05-19T02:59:38.273Z,56.30
2023-05-19T03:02:05.105Z,56.30
2023-05-19T03:04:31.893Z,56.30
2023-05-19T03:07:02.092Z,56.30
2023-05-19T03:09:28.737Z,56.30
2023-05-19T03:11:55.444Z,56.30
2023-05-19T03:14:23.757Z,56.30
2023-05-19T03:16:50.834Z,56.30
2023-05-19T03:19:18.125Z,56.30
2023-05-19T03:21:44.857Z,56.30
2023-05-19T03:24:11.824Z,56.30
2023-05-19T03:26:38.569Z,56.30
2023-05-19T03:29:05.236Z,56.30
2023-05-19T03:31:31.958Z,56.40
2023-05-19T03:33:58.662Z,56.30
2023-05-19T03:36:26.209Z,56.30
2023-05-19T03:38:52.834Z,56.30
2023-05-19T03:41:19.481Z,56.40
2023-05-19T03:43:46.139Z,56.30
2023-05-19T03:46:12.791Z,56.30
2023-05-19T03:48:39.452Z,56.30
2023-05-19T03:51:06.122Z,56.30
2023-05-19T03:53:33.003Z,56.30
2023-05-19T03:56:00.555Z,56.30
2023-05-19T03:58:27.172Z,56.30
2023-05-19T04:00:53.818Z,56.30
2023-05-19T04:03:20.958Z,56.30
2023-05-19T04:05:47.757Z,56.30
2023-05-19T04:08:14.402Z,56.40
2023-05-19T04:10:41.088Z,56.30
2023-05-19T04:13:07.737Z,56.30
2023-05-19T04:15:34.547Z,56.30
2023-05-19T04:18:01.242Z,56.30
2023-05-19T04:20:27.934Z,56.20
2023-05-19T04:22:54.605Z,56.40
2023-05-19T04:25:21.278Z,56.30
2023-05-19T04:27:48.677Z,56.40
2023-05-19T04:30:22.039Z,56.30
2023-05-19T04:32:52.141Z,56.30
2023-05-19T04:35:19.435Z,56.30
2023-05-19T04:37:46.186Z,56.40
2023-05-19T04:40:13.276Z,56.40
2023-05-19T04:42:45.720Z,56.50
2023-05-19T04:45:13.918Z,56.80
2023-05-19T04:47:41.712Z,56.60
2023-05-19T04:50:10.157Z,56.50
2023-05-19T04:52:37.646Z,56.90
2023-05-19T04:55:04.629Z,56.70
2023-05-19T04:57:31.291Z,56.80
2023-05-19T05:00:00.010Z,56.90
2023-05-19T05:02:27.919Z,56.90
2023-05-19T05:04:56.540Z,56.90
2023-05-19T05:07:23.850Z,56.80
2023-05-19T05:09:50.818Z,56.90
2023-05-19T05:12:21.290Z,57.00
2023-05-19T05:14:48.205Z,57.00
2023-05-19T05:17:16.041Z,57.00
2023-05-19T05:19:42.967Z,57.00
2023-05-19T05:22:09.888Z,57.00
2023-05-19T05:24:36.820Z,57.10
2023-05-19T05:27:04.422Z,57.00
2023-05-19T05:29:31.058Z,57.10
2023-05-19T05:31:57.851Z,57.10
2023-05-19T05:34:24.853Z,57.10
2023-05-19T05:36:51.545Z,57.00
2023-05-19T05:39:18.330Z,57.10
2023-05-19T05:41:44.988Z,57.00
2023-05-19T05:44:11.705Z,57.00
2023-05-19T05:46:38.557Z,56.90
2023-05-19T05:49:05.547Z,57.00
2023-05-19T05:51:32.957Z,57.00
2023-05-19T05:54:00.697Z,57.30
2023-05-19T05:56:27.609Z,57.20
2023-05-19T05:58:54.259Z,57.10
2023-05-19T06:01:21.862Z,57.00
2023-05-19T06:03:48.610Z,57.10
2023-05-19T06:06:15.555Z,57.10
2023-05-19T06:08:42.469Z,57.30
2023-05-19T06:11:09.438Z,57.00
2023-05-19T06:13:36.575Z,57.00
2023-05-19T06:16:03.631Z,57.00
2023-05-19T06:18:30.512Z,57.00
2023-05-19T06:20:57.219Z,57.00
2023-05-19T06:23:25.070Z,57.00
2023-05-19T06:25:51.757Z,57.00
2023-05-19T06:28:18.450Z,56.90
2023-05-19T06:30:45.171Z,56.90
2023-05-19T06:33:11.928Z,56.90
2023-05-19T06:35:38.661Z,56.90
2023-05-19T06:38:05.298Z,56.90
2023-05-19T06:40:32.076Z,57.00
2023-05-19T06:42:58.940Z,57.00
2023-05-19T06:45:25.769Z,56.90
2023-05-19T06:47:52.587Z,56.90
2023-05-19T06:50:19.706Z,56.90
2023-05-19T06:52:47.061Z,57.00
2023-05-19T06:55:13.732Z,57.10
2023-05-19T06:57:40.628Z,57.20
2023-05-19T07:00:12.971Z,57.00
2023-05-19T07:02:41.247Z,56.90
2023-05-19T07:05:09.123Z,56.80
2023-05-19T07:07:35.792Z,56.80
2023-05-19T07:10:02.447Z,56.80
2023-05-19T07:12:29.173Z,56.90
2023-05-19T07:14:55.820Z,56.80
2023-05-19T07:17:22.603Z,56.80
2023-05-19T07:19:49.408Z,56.80
2023-05-19T07:22:16.400Z,56.80
2023-05-19T07:24:43.065Z,56.90
2023-05-19T07:27:10.179Z,56.90
2023-05-19T07:29:36.958Z,56.90
2023-05-19T07:32:03.808Z,56.80
2023-05-19T07:34:30.479Z,56.90
2023-05-19T07:36:57.196Z,56.90
2023-05-19T07:39:26.301Z,56.90
2023-05-19T07:41:55.562Z,56.90
2023-05-19T07:44:22.324Z,57.00
2023-05-19T07:46:49.030Z,57.40
2023-05-19T07:49:15.753Z,57.10
2023-05-19T07:51:42.431Z,56.80
2023-05-19T07:54:09.130Z,56.90
2023-05-19T07:56:35.907Z,56.90
2023-05-19T07:59:03.634Z,56.80
2023-05-19T08:01:31.016Z,57.10
2023-05-19T08:03:57.908Z,56.90
2023-05-19T08:06:25.262Z,56.80
2023-05-19T08:08:52.335Z,56.90
2023-05-19T08:11:18.984Z,56.90
2023-05-19T08:13:48.648Z,56.90
2023-05-19T08:16:16.202Z,57.00
2023-05-19T08:18:43.214Z,57.00
2023-05-19T08:21:09.900Z,57.00
2023-05-19T08:23:37.363Z,57.30
2023-05-19T08:26:04.347Z,57.10
2023-05-19T08:28:31.359Z,56.50
2023-05-19T08:30:58.032Z,57.10
2023-05-19T08:33:24.754Z,57.00
2023-05-19T08:35:51.412Z,57.30
2023-05-19T08:38:18.078Z,57.30
2023-05-19T08:40:47.208Z,57.00
2023-05-19T08:43:14.307Z,57.30
2023-05-19T08:45:48.629Z,57.20
2023-05-19T08:48:18.379Z,57.10
2023-05-19T08:50:58.843Z,57.00
2023-05-19T08:53:34.373Z,57.00
2023-05-19T08:56:11.368Z,57.00
2023-05-19T08:58:43.772Z,57.00
2023-05-19T09:01:16.918Z,57.10
2023-05-19T09:03:45.533Z,57.10
2023-05-19T09:06:12.998Z,57.10
2023-05-19T09:08:43.455Z,57.10
2023-05-19T09:11:10.943Z,57.00
2023-05-19T09:13:37.688Z,56.90
2023-05-19T09:16:04.650Z,60.90
2023-05-19T09:18:31.757Z,57.20
2023-05-19T09:21:00.290Z,56.90
2023-05-19T09:23:29.059Z,57.40
2023-05-19T09:25:57.106Z,57.50
2023-05-19T09:28:33.015Z,57.80
2023-05-19T09:31:10.857Z,57.50
2023-05-19T09:33:39.240Z,57.60
2023-05-19T09:36:08.327Z,57.70
2023-05-19T09:38:36.152Z,56.90
2023-05-19T09:41:03.300Z,57.70
2023-05-19T09:43:31.635Z,57.40
2023-05-19T09:46:03.925Z,57.60
2023-05-19T09:48:30.626Z,56.90
2023-05-19T09:50:58.068Z,57.30
2023-05-19T09:53:25.471Z,57.10
2023-05-19T09:55:59.128Z,57.40
2023-05-19T09:58:27.026Z,57.10
2023-05-19T10:00:56.781Z,57.10
2023-05-19T10:03:24.055Z,57.30
2023-05-19T10:05:52.333Z,57.40
2023-05-19T10:08:19.172Z,57.20
2023-05-19T10:10:47.530Z,57.30
2023-05-19T10:13:14.578Z,57.20
2023-05-19T10:15:57.396Z,57.20
2023-05-19T10:18:26.613Z,57.00
2023-05-19T10:20:54.204Z,57.10
2023-05-19T10:23:20.996Z,56.70
2023-05-19T10:25:49.180Z,56.80
2023-05-19T10:28:18.386Z,56.80
2023-05-19T10:30:49.446Z,56.80
2023-05-19T10:33:18.618Z,56.90
2023-05-19T10:36:08.187Z,56.90
2023-05-19T10:39:00.539Z,56.90
2023-05-19T10:41:48.993Z,57.00
2023-05-19T10:44:37.395Z,57.00
2023-05-19T10:47:07.384Z,56.90
2023-05-19T10:49:37.610Z,56.60
2023-05-19T10:52:18.724Z,57.10
2023-05-19T10:54:48.159Z,57.20
2023-05-19T10:57:19.813Z,57.40
2023-05-19T10:59:47.093Z,57.60
2023-05-19T11:02:36.975Z,57.50
2023-05-19T11:05:12.793Z,57.60
2023-05-19T11:07:43.340Z,57.60
2023-05-19T11:10:10.672Z,57.70
2023-05-19T11:12:42.792Z,57.70
2023-05-19T11:15:16.519Z,57.90
2023-05-19T11:17:48.314Z,57.90
2023-05-19T11:20:25.870Z,58.10
2023-05-19T11:23:15.714Z,58.10
2023-05-19T11:25:51.004Z,58.10
2023-05-19T11:28:28.109Z,58.00
2023-05-19T11:30:57.774Z,57.90
2023-05-19T11:33:29.012Z,57.90
2023-05-19T11:35:59.565Z,57.90
2023-05-19T11:38:28.457Z,57.30
2023-05-19T11:40:56.346Z,57.90
2023-05-19T11:43:24.410Z,58.10
2023-05-19T11:45:51.637Z,58.10
2023-05-19T11:48:21.781Z,58.10
2023-05-19T11:50:48.613Z,58.10
2023-05-19T11:53:16.603Z,58.10
2023-05-19T11:55:47.355Z,58.40
2023-05-19T11:58:14.494Z,58.40
2023-05-19T12:00:42.689Z,58.40
2023-05-19T12:03:09.825Z,58.40
2023-05-19T12:05:42.870Z,58.40
2023-05-19T12:08:10.963Z,58.00
2023-05-19T12:10:39.448Z,58.40
2023-05-19T12:13:09.193Z,58.30
2023-05-19T12:15:36.608Z,58.40
2023-05-19T12:18:04.678Z,58.10
2023-05-19T12:20:32.565Z,58.40
2023-05-19T12:23:00.589Z,58.50
2023-05-19T12:25:28.957Z,58.40
2023-05-19T12:28:00.157Z,58.50
2023-05-19T12:30:28.991Z,58.50
2023-05-19T12:32:59.236Z,58.40
2023-05-19T12:35:30.603Z,58.50
2023-05-19T12:37:57.771Z,58.10
2023-05-19T12:40:26.091Z,58.40
2023-05-19T12:42:58.741Z,58.40
2023-05-19T12:45:27.797Z,58.50
2023-05-19T12:47:54.748Z,58.50
2023-05-19T12:50:21.509Z,58.40
2023-05-19T12:52:53.257Z,58.50
2023-05-19T12:55:20.927Z,58.40
2023-05-19T12:57:57.104Z,57.90
2023-05-19T13:00:28.120Z,58.40
2023-05-19T13:03:05.566Z,58.20
2023-05-19T13:05:43.696Z,58.30
2023-05-19T13:08:16.084Z,57.50
2023-05-19T13:10:44.458Z,58.10
2023-05-19T13:13:11.306Z,58.20
2023-05-19T13:15:43.463Z,58.10
2023-05-19T13:18:11.609Z,58.40
2023-05-19T13:20:40.347Z,58.30
2023-05-19T13:23:07.322Z,58.20
2023-05-19T13:25:34.431Z,58.00
2023-05-19T13:28:05.689Z,58.20
2023-05-19T13:30:34.146Z,58.40
2023-05-19T13:33:01.331Z,58.50
2023-05-19T13:35:28.117Z,58.20
2023-05-19T13:37:54.919Z,58.10
2023-05-19T13:40:22.953Z,58.10
2023-05-19T13:42:49.631Z,58.10
2023-05-19T13:45:16.347Z,58.00
2023-05-19T13:47:43.300Z,57.70
2023-05-19T13:50:10.160Z,58.20
2023-05-19T13:52:36.862Z,58.10
2023-05-19T13:55:03.715Z,57.90
2023-05-19T14:00:03.401Z,57.50
2023-05-19T14:02:31.045Z,57.80
2023-05-19T14:04:57.977Z,57.90
2023-05-19T14:07:25.392Z,57.80
2023-05-19T14:09:52.291Z,57.80
2023-05-19T14:12:19.302Z,57.80
2023-05-19T14:14:48.960Z,57.60
2023-05-19T14:17:15.681Z,57.60
2023-05-19T14:19:42.378Z,57.60
2023-05-19T14:22:09.091Z,57.60
2023-05-19T14:24:35.769Z,57.50
2023-05-19T14:27:02.401Z,57.60
2023-05-19T14:29:31.008Z,57.50
2023-05-19T14:31:57.896Z,57.60
2023-05-19T14:34:24.812Z,57.50
2023-05-19T14:36:52.079Z,57.50
2023-05-19T14:39:18.781Z,57.50
2023-05-19T14:41:45.691Z,57.40
2023-05-19T14:44:12.322Z,57.40
2023-05-19T14:46:39.024Z,57.30
2023-05-19T14:49:06.485Z,57.30
2023-05-19T14:51:33.198Z,57.40
2023-05-19T14:54:01.137Z,57.40
2023-05-19T14:56:27.931Z,57.40
2023-05-19T14:58:54.576Z,57.40
2023-05-19T15:01:21.253Z,57.40
2023-05-19T15:03:48.018Z,57.30
2023-05-19T15:06:14.912Z,57.30
2023-05-19T15:08:41.787Z,57.40
2023-05-19T15:11:08.612Z,57.40
2023-05-19T15:13:35.281Z,57.40
2023-05-19T15:16:16.327Z,57.50
2023-05-19T15:18:44.685Z,57.20
2023-05-19T15:21:11.440Z,57.80
2023-05-19T15:23:38.086Z,58.00
2023-05-19T15:26:04.895Z,58.10
2023-05-19T15:28:32.218Z,58.10
2023-05-19T15:30:59.007Z,58.40
2023-05-19T15:33:25.976Z,58.30
2023-05-19T15:35:52.701Z,58.30
2023-05-19T15:38:19.915Z,58.40
2023-05-19T15:40:46.847Z,58.50
2023-05-19T15:43:14.153Z,58.40
2023-05-19T15:45:41.041Z,58.40
2023-05-19T15:48:08.259Z,58.40
2023-05-19T15:50:35.875Z,58.40
2023-05-19T15:53:03.239Z,58.40
2023-05-19T15:55:29.925Z,58.30
2023-05-19T15:57:56.793Z,58.40
2023-05-19T16:00:23.608Z,58.40
2023-05-19T16:02:50.625Z,58.60
2023-05-19T16:05:17.409Z,58.50
2023-05-19T16:07:44.041Z,58.50
2023-05-19T16:10:10.908Z,58.40
2023-05-19T16:12:37.599Z,58.50
2023-05-19T16:15:04.536Z,58.30
2023-05-19T16:17:31.273Z,58.50
2023-05-19T16:19:58.001Z,58.30
2023-05-19T16:22:25.393Z,58.30
2023-05-19T16:24:52.445Z,58.30
2023-05-19T16:27:19.196Z,58.30
2023-05-19T16:29:45.980Z,58.20
2023-05-19T16:32:12.951Z,58.30
2023-05-19T16:34:39.744Z,58.30
2023-05-19T16:37:06.712Z,58.30
2023-05-19T16:39:36.779Z,58.40
2023-05-19T16:42:04.565Z,58.30
2023-05-19T16:44:31.337Z,58.30
2023-05-19T16:46:58.042Z,58.00
2023-05-19T16:49:24.704Z,57.70
2023-05-19T16:51:52.779Z,58.20
2023-05-19T16:54:19.599Z,58.10
2023-05-19T16:56:46.315Z,58.10
2023-05-19T16:59:13.045Z,58.10
2023-05-19T17:01:39.729Z,58.10
2023-05-19T17:04:06.530Z,58.10
2023-05-19T17:06:33.196Z,58.00
2023-05-19T17:08:59.870Z,58.10
2023-05-19T17:11:27.092Z,58.10
2023-05-19T17:13:53.820Z,58.00
2023-05-19T17:16:20.488Z,58.10
2023-05-19T17:18:47.978Z,58.00
2023-05-19T17:21:14.858Z,58.10
2023-05-19T17:23:41.833Z,58.10
2023-05-19T17:26:08.769Z,58.00
2023-05-19T17:28:35.617Z,58.00
2023-05-19T17:31:09.814Z,58.20
2023-05-19T17:33:36.770Z,58.00
2023-05-19T17:36:04.377Z,58.10
2023-05-19T17:38:33.798Z,58.10
2023-05-19T17:41:01.381Z,58.00
2023-05-19T17:43:28.316Z,58.00
2023-05-19T17:45:55.008Z,58.20
2023-05-19T17:48:21.662Z,57.70
2023-05-19T17:50:48.984Z,58.10
2023-05-19T17:53:16.087Z,58.20
2023-05-19T17:55:49.317Z,58.10
2023-05-19T17:58:17.700Z,57.80
2023-05-19T18:00:44.646Z,57.80
2023-05-19T18:03:11.788Z,58.20
2023-05-19T18:05:40.012Z,58.30
2023-05-19T18:08:09.178Z,58.30
2023-05-19T18:10:38.214Z,58.30
2023-05-19T18:13:05.771Z,58.30
2023-05-19T18:15:32.812Z,58.30
2023-05-19T18:17:59.904Z,58.30
2023-05-19T18:20:26.953Z,58.30
2023-05-19T18:22:53.613Z,58.30
2023-05-19T18:25:20.806Z,58.30
2023-05-19T18:27:47.546Z,58.40
2023-05-19T18:30:14.337Z,58.30
2023-05-19T18:32:41.466Z,58.30
2023-05-19T18:35:09.062Z,58.30
2023-05-19T18:37:35.763Z,57.80
2023-05-19T18:40:02.447Z,58.30
2023-05-19T18:42:29.190Z,58.30
2023-05-19T18:44:55.890Z,58.20
2023-05-19T18:47:23.000Z,58.30
2023-05-19T18:49:50.075Z,58.30
2023-05-19T18:52:16.993Z,58.20
2023-05-19T18:54:45.859Z,58.30
2023-05-19T18:57:12.810Z,58.30
2023-05-19T18:59:39.486Z,58.20
2023-05-19T19:02:06.687Z,58.30
2023-05-19T19:04:33.657Z,58.20
2023-05-19T19:07:01.221Z,58.20
2023-05-19T19:09:27.867Z,58.30
2023-05-19T19:11:54.545Z,58.20
2023-05-19T19:14:21.196Z,58.10
2023-05-19T19:16:47.886Z,58.10
2023-05-19T19:19:14.743Z,58.10
2023-05-19T19:21:41.809Z,58.10
2023-05-19T19:24:08.493Z,58.10
2023-05-19T19:26:35.187Z,58.10
2023-05-19T19:29:01.827Z,58.00
2023-05-19T19:31:28.719Z,58.10
2023-05-19T19:34:02.874Z,58.10
2023-05-19T19:36:29.787Z,58.00
2023-05-19T19:38:56.659Z,58.10
2023-05-19T19:41:23.384Z,58.00
2023-05-19T19:43:50.847Z,58.00
2023-05-19T19:46:17.556Z,57.90
2023-05-19T19:48:44.234Z,58.10
2023-05-19T19:51:10.979Z,58.00
2023-05-19T19:53:37.656Z,58.00
2023-05-19T19:56:05.152Z,58.00
2023-05-19T19:58:31.928Z,57.40
2023-05-19T20:01:00.017Z,58.00
2023-05-19T20:03:27.001Z,58.00
2023-05-19T20:05:55.747Z,58.00
2023-05-19T20:08:23.792Z,57.90
2023-05-19T20:10:50.699Z,58.00
2023-05-19T20:13:18.285Z,58.00
2023-05-19T20:15:46.529Z,58.00
2023-05-19T20:18:13.384Z,57.90
2023-05-19T20:20:40.932Z,58.00
2023-05-19T20:23:08.313Z,57.90
2023-05-19T20:25:54.449Z,57.90
2023-05-19T20:28:25.756Z,57.90
2023-05-19T20:30:52.442Z,57.90
2023-05-19T20:33:19.090Z,58.00
2023-05-19T20:35:45.817Z,58.00
2023-05-19T20:38:12.488Z,57.70
2023-05-19T20:40:39.169Z,58.20
2023-05-19T20:43:05.976Z,58.70
2023-05-19T20:45:33.057Z,58.20
2023-05-19T20:48:00.591Z,58.30
2023-05-19T20:50:27.393Z,58.40
2023-05-19T20:52:54.186Z,58.20
2023-05-19T20:55:21.133Z,58.20
2023-05-19T20:57:47.838Z,58.30
2023-05-19T21:00:14.748Z,58.20
2023-05-19T21:02:41.547Z,58.20
2023-05-19T21:05:08.556Z,58.20
2023-05-19T21:07:35.315Z,58.20
2023-05-19T21:10:02.209Z,58.20
2023-05-19T21:12:33.733Z,58.20
2023-05-19T21:15:01.471Z,58.20
2023-05-19T21:17:28.226Z,58.20
2023-05-19T21:19:57.833Z,58.30
2023-05-19T21:22:25.915Z,58.30
2023-05-19T21:24:53.518Z,58.20
2023-05-19T21:27:20.208Z,58.20
2023-05-19T21:29:47.039Z,58.20
2023-05-19T21:32:13.679Z,58.20
2023-05-19T21:34:40.415Z,58.20
2023-05-19T21:37:07.107Z,58.20
2023-05-19T21:39:34.318Z,58.10
2023-05-19T21:42:00.958Z,58.20
2023-05-19T21:44:27.593Z,58.20
2023-05-19T21:46:54.384Z,58.20
2023-05-19T21:49:21.295Z,58.10
2023-05-19T21:51:48.016Z,58.20
2023-05-19T21:54:14.718Z,58.20
2023-05-19T21:56:41.540Z,58.20
2023-05-19T21:59:09.041Z,58.20
2023-05-19T22:01:36.641Z,58.20
2023-05-19T22:04:03.504Z,58.20
2023-05-19T22:06:31.381Z,58.10
2023-05-19T22:09:00.996Z,57.60
2023-05-19T22:11:27.698Z,58.20
2023-05-19T22:13:54.717Z,58.10
2023-05-19T22:16:21.422Z,58.10
2023-05-19T22:18:48.142Z,58.20
2023-05-19T22:21:14.838Z,58.10
2023-05-19T22:23:41.493Z,58.10
2023-05-19T22:26:08.220Z,58.10
2023-05-19T22:28:34.899Z,58.20
2023-05-19T22:31:01.670Z,58.10
2023-05-19T22:33:28.339Z,58.10
2023-05-19T22:35:55.259Z,58.10
2023-05-19T22:38:21.908Z,58.20
2023-05-19T22:40:49.614Z,58.10
2023-05-19T22:43:16.323Z,58.10
2023-05-19T22:45:43.028Z,58.10
2023-05-19T22:48:09.735Z,58.10
2023-05-19T22:50:36.409Z,58.10
2023-05-19T22:53:03.108Z,58.20
2023-05-19T22:55:29.746Z,58.10
2023-05-19T22:57:56.433Z,58.20
2023-05-19T23:00:23.099Z,58.10
2023-05-19T23:02:49.816Z,58.20
2023-05-19T23:05:16.691Z,58.20
2023-05-19T23:07:43.365Z,58.10
2023-05-19T23:10:10.368Z,58.10
2023-05-19T23:12:37.034Z,58.20
2023-05-19T23:15:04.407Z,58.10
2023-05-19T23:17:31.226Z,57.60
2023-05-19T23:19:57.938Z,58.20
2023-05-19T23:22:24.642Z,58.20
2023-05-19T23:24:51.299Z,58.10
2023-05-19T23:27:18.069Z,58.20
2023-05-19T23:29:48.979Z,58.10
2023-05-19T23:32:15.914Z,58.10
2023-05-19T23:34:42.651Z,58.10
2023-05-19T23:37:09.387Z,58.10
2023-05-19T23:39:38.115Z,58.10
2023-05-19T23:42:05.689Z,58.10
2023-05-19T23:44:32.490Z,58.00
2023-05-19T23:46:59.281Z,58.10
2023-05-19T23:49:26.091Z,58.20
2023-05-19T23:51:52.734Z,58.10
2023-05-19T23:54:19.365Z,58.20
2023-05-19T23:56:46.059Z,58.10
2023-05-19T23:59:12.770Z,57.60
